Time;durP1;ratioP1;P1;durP2;ratioP2;P2;SDS_P1;SDS_P2;PMS_P1;PMS_P2;Temp;Humidity;BMP_temperature;BMP_pressure;BME280_temperature;BME280_humidity;BME280_pressure;Samples;Min_cycle;Max_cycle;Signal;HPM_P1;HPM_P2
2023/03/26 04:02:10;;;;;;;0.20;0.20;;;6.90;99.90;;;;;;5097353;23;20261;-70
2023/03/26 04:04:37;;;;;;;0.60;0.60;;;6.90;99.90;;;;;;4917333;29;20218;-68
2023/03/26 04:07:05;;;;;;;0.32;0.32;;;6.90;99.90;;;;;;4922911;29;20214;-69
2023/03/26 04:09:32;;;;;;;0.68;0.68;;;6.90;99.90;;;;;;4925884;29;20369;-70
2023/03/26 04:11:58;;;;;;;0.30;0.30;;;6.90;99.90;;;;;;4926380;29;20570;-70
2023/03/26 04:14:25;;;;;;;0.65;0.65;;;6.90;99.90;;;;;;4916476;29;20207;-70
2023/03/26 04:16:52;;;;;;;0.70;0.70;;;6.90;99.90;;;;;;4924336;29;20354;-69
2023/03/26 04:19:20;;;;;;;0.93;0.93;;;6.90;99.90;;;;;;4923749;29;20206;-70
2023/03/26 04:21:48;;;;;;;0.10;0.10;;;7.00;99.90;;;;;;4923689;29;20229;-70
2023/03/26 04:24:15;;;;;;;0.40;0.40;;;7.00;99.90;;;;;;4927792;29;20209;-70
2023/03/26 04:26:41;;;;;;;0.40;0.40;;;7.00;99.90;;;;;;4923076;29;20573;-70
2023/03/26 04:29:12;;;;;;;0.60;0.60;;;7.00;99.90;;;;;;4917554;29;20218;-69
2023/03/26 04:31:39;;;;;;;8.85;1.88;;;7.00;99.90;;;;;;4914940;29;20350;-71
2023/03/26 04:34:12;;;;;;;0.20;0.20;;;7.00;99.90;;;;;;4915118;29;20571;-70
2023/03/26 04:36:41;;;;;;;0.47;0.22;;;7.00;99.90;;;;;;4925146;29;20266;-70
2023/03/26 04:39:13;;;;;;;0.20;0.20;;;7.00;99.90;;;;;;4922859;29;21119;-71
2023/03/26 04:41:39;;;;;;;2.05;0.65;;;7.00;99.90;;;;;;4919449;29;20268;-70
2023/03/26 04:44:06;;;;;;;0.20;0.20;;;7.00;99.90;;;;;;4917163;29;20211;-71
2023/03/26 04:46:33;;;;;;;1.48;1.33;;;7.00;99.90;;;;;;4917343;29;20218;-71
2023/03/26 04:49:00;;;;;;;0.63;0.63;;;7.00;99.90;;;;;;4920316;29;20202;-71
2023/03/26 04:51:37;;;;;;;0.35;0.35;;;7.00;99.90;;;;;;4915536;29;20285;-70
2023/03/26 04:54:07;;;;;;;0.20;0.20;;;7.00;99.90;;;;;;4915115;29;20227;-71
2023/03/26 04:56:42;;;;;;;0.30;0.30;;;6.90;99.90;;;;;;4928194;29;20214;-71
2023/03/26 04:59:12;;;;;;;4.22;0.50;;;7.00;99.90;;;;;;4920306;29;20218;-71
2023/03/26 05:01:39;;;;;;;1.65;0.20;;;7.00;99.90;;;;;;4925998;29;20615;-70
2023/03/26 05:04:06;;;;;;;0.43;0.43;;;6.90;99.90;;;;;;4934132;29;20206;-71
2023/03/26 05:06:33;;;;;;;0.40;0.40;;;6.90;99.90;;;;;;4919464;29;20635;-70
2023/03/26 05:09:00;;;;;;;6.93;0.65;;;6.90;99.90;;;;;;4922128;29;20206;-71
2023/03/26 05:11:28;;;;;;;2.65;0.93;;;6.90;99.90;;;;;;4923330;29;20307;-70
2023/03/26 05:13:56;;;;;;;0.35;0.35;;;6.90;99.90;;;;;;4922864;29;20227;-71
2023/03/26 05:16:23;;;;;;;2.97;0.65;;;6.90;99.90;;;;;;4923495;29;20238;-70
2023/03/26 05:18:51;;;;;;;4.43;0.32;;;6.90;99.90;;;;;;4924431;29;21490;-71
2023/03/26 05:21:18;;;;;;;0.30;0.30;;;6.90;99.90;;;;;;4911414;29;20226;-71
2023/03/26 05:23:45;;;;;;;0.77;0.77;;;6.90;99.90;;;;;;4918162;29;20202;-70
2023/03/26 05:26:12;;;;;;;0.30;0.30;;;6.90;99.90;;;;;;4914091;29;20218;-70
2023/03/26 05:28:40;;;;;;;0.57;0.50;;;6.90;99.90;;;;;;4918211;29;20247;-70
2023/03/26 05:31:08;;;;;;;5.68;0.63;;;6.90;99.90;;;;;;4918300;29;20235;-71
2023/03/26 05:33:34;;;;;;;0.43;0.43;;;6.90;99.90;;;;;;4915777;29;20230;-70
2023/03/26 05:36:02;;;;;;;1.67;0.65;;;6.80;99.90;;;;;;4914446;29;20223;-71
2023/03/26 05:38:29;;;;;;;0.65;0.50;;;6.80;99.90;;;;;;4915771;29;20663;-70
2023/03/26 05:41:00;;;;;;;0.75;0.75;;;6.80;99.90;;;;;;4916218;29;20317;-71
2023/03/26 05:43:27;;;;;;;0.20;0.20;;;6.80;99.90;;;;;;4919378;29;20214;-70
2023/03/26 05:45:55;;;;;;;0.30;0.30;;;6.80;99.90;;;;;;4924481;29;20216;-69
2023/03/26 05:48:23;;;;;;;0.73;0.73;;;6.80;99.90;;;;;;4914474;29;20214;-69
2023/03/26 05:50:50;;;;;;;0.80;0.80;;;6.90;99.90;;;;;;4915979;29;20229;-70
2023/03/26 05:53:17;;;;;;;0.60;0.60;;;6.90;99.90;;;;;;4921926;29;20222;-69
2023/03/26 05:55:45;;;;;;;0.60;0.60;;;6.90;99.90;;;;;;4927532;29;20202;-71
2023/03/26 05:58:12;;;;;;;0.70;0.70;;;7.00;99.90;;;;;;4921360;29;20206;-71
2023/03/26 06:00:39;;;;;;;0.77;0.77;;;7.00;99.90;;;;;;4924602;29;20245;-70
2023/03/26 06:03:11;;;;;;;1.38;1.33;;;7.00;99.90;;;;;;4910246;29;20219;-70
2023/03/26 06:05:39;;;;;;;1.17;1.08;;;7.10;99.90;;;;;;4908553;29;20278;-70
2023/03/26 06:08:06;;;;;;;4.80;1.02;;;7.10;99.90;;;;;;4921302;29;20206;-70
2023/03/26 06:10:33;;;;;;;0.75;0.75;;;7.10;99.90;;;;;;4921107;29;20244;-70
2023/03/26 06:13:00;;;;;;;2.28;2.17;;;7.10;99.90;;;;;;4924855;29;20233;-70
2023/03/26 06:15:26;;;;;;;7.32;1.15;;;7.10;99.90;;;;;;4924039;29;20789;-70
2023/03/26 06:17:53;;;;;;;1.27;1.27;;;7.10;99.90;;;;;;4923234;29;20213;-69
2023/03/26 06:20:21;;;;;;;0.55;0.52;;;7.20;99.90;;;;;;4918754;29;20592;-70
2023/03/26 06:22:48;;;;;;;0.82;0.82;;;7.10;99.90;;;;;;4929841;29;20230;-70
2023/03/26 06:25:15;;;;;;;1.05;0.55;;;7.10;99.90;;;;;;4926970;29;20202;-70
2023/03/26 06:27:41;;;;;;;1.55;0.88;;;7.10;99.90;;;;;;4931722;29;20210;-70
2023/03/26 06:30:09;;;;;;;0.40;0.40;;;7.10;99.90;;;;;;4928986;29;20214;-69
2023/03/26 06:32:36;;;;;;;3.72;1.10;;;7.10;99.90;;;;;;4923453;29;20207;-70
2023/03/26 06:35:03;;;;;;;0.20;0.20;;;7.10;99.90;;;;;;4931010;29;20211;-69
2023/03/26 06:37:31;;;;;;;1.75;1.50;;;7.20;99.90;;;;;;4926398;29;20232;-70
2023/03/26 06:39:58;;;;;;;0.30;0.20;;;7.20;99.90;;;;;;4933648;29;20230;-70
2023/03/26 06:42:24;;;;;;;0.40;0.35;;;7.20;99.90;;;;;;4929053;29;20230;-71
2023/03/26 06:44:51;;;;;;;0.40;0.30;;;7.20;99.90;;;;;;4919938;29;20206;-71
2023/03/26 06:47:18;;;;;;;0.20;0.20;;;7.30;99.90;;;;;;4919785;29;20199;-71
2023/03/26 06:49:44;;;;;;;0.85;0.40;;;7.30;99.90;;;;;;4918011;29;20213;-70
2023/03/26 06:52:11;;;;;;;0.63;0.63;;;7.40;99.90;;;;;;4925351;29;20238;-71
2023/03/26 06:54:39;;;;;;;8.57;0.65;;;7.40;99.90;;;;;;4913166;29;20234;-70
2023/03/26 06:57:06;;;;;;;8.90;1.52;;;7.40;99.90;;;;;;4913371;29;20609;-71
2023/03/26 06:59:33;;;;;;;13.52;2.03;;;7.50;99.90;;;;;;4917689;29;20222;-71
2023/03/26 07:02:00;;;;;;;0.65;0.65;;;7.50;99.90;;;;;;4924556;29;20757;-70
2023/03/26 07:04:26;;;;;;;0.63;0.40;;;7.50;99.90;;;;;;4921654;29;20237;-70
2023/03/26 07:06:53;;;;;;;1.10;1.00;;;7.50;99.90;;;;;;4927598;29;20388;-70
2023/03/26 07:09:20;;;;;;;0.40;0.40;;;7.50;99.90;;;;;;4924761;29;20274;-70
2023/03/26 07:11:48;;;;;;;0.30;0.30;;;7.50;99.90;;;;;;4921605;29;20221;-70
2023/03/26 07:14:15;;;;;;;0.40;0.30;;;7.50;99.90;;;;;;4929431;29;20245;-70
2023/03/26 07:16:42;;;;;;;0.30;0.30;;;7.50;99.90;;;;;;4930102;29;20221;-70
2023/03/26 07:19:08;;;;;;;0.70;0.70;;;7.60;99.90;;;;;;4922912;29;20209;-70
2023/03/26 07:21:35;;;;;;;1.38;0.85;;;7.60;99.90;;;;;;4920509;29;20230;-70
2023/03/26 07:24:03;;;;;;;0.30;0.30;;;7.60;99.90;;;;;;4916311;29;20210;-71
2023/03/26 07:26:35;;;;;;;2.15;0.50;;;7.70;99.90;;;;;;4908277;29;20214;-72
2023/03/26 07:29:10;;;;;;;0.50;0.50;;;7.70;99.90;;;;;;4919809;29;20253;-70
2023/03/26 07:31:42;;;;;;;2.80;1.17;;;7.70;99.90;;;;;;4916361;29;20579;-71
2023/03/26 07:34:21;;;;;;;1.15;0.43;;;7.70;99.90;;;;;;4921405;29;20226;-71
2023/03/26 07:36:53;;;;;;;0.93;0.93;;;7.90;99.90;;;;;;4908534;29;20206;-71
2023/03/26 07:39:36;;;;;;;0.80;0.60;;;7.90;99.90;;;;;;4915325;29;20580;-71
2023/03/26 07:42:11;;;;;;;0.30;0.30;;;8.00;99.90;;;;;;4919014;29;20236;-71
2023/03/26 07:44:50;;;;;;;0.30;0.30;;;8.00;99.90;;;;;;4915014;29;20217;-70
2023/03/26 07:47:24;;;;;;;2.08;1.00;;;7.90;99.90;;;;;;4917630;29;20217;-70
2023/03/26 07:49:53;;;;;;;6.72;1.25;;;7.90;99.90;;;;;;4915618;29;20206;-72
2023/03/26 07:52:21;;;;;;;0.63;0.63;;;7.90;99.90;;;;;;4920023;29;20248;-70
2023/03/26 07:54:48;;;;;;;0.20;0.20;;;7.90;99.90;;;;;;4926985;29;20225;-71
2023/03/26 07:57:21;;;;;;;0.30;0.30;;;8.00;99.90;;;;;;4918521;29;20206;-71
2023/03/26 07:59:56;;;;;;;5.72;1.08;;;8.10;99.90;;;;;;4912206;29;20211;-71
2023/03/26 08:02:40;;;;;;;0.70;0.70;;;8.10;99.90;;;;;;4914836;29;20238;-71
2023/03/26 08:05:20;;;;;;;0.32;0.32;;;8.20;99.90;;;;;;4921037;29;20221;-71
2023/03/26 08:07:57;;;;;;;1.95;1.95;;;8.20;99.90;;;;;;4917820;29;20307;-72
2023/03/26 08:10:29;;;;;;;0.73;0.60;;;8.30;99.90;;;;;;4912723;29;20226;-72
2023/03/26 08:13:05;;;;;;;0.47;0.47;;;8.30;99.90;;;;;;4924905;29;20217;-71
2023/03/26 08:15:37;;;;;;;14.63;1.70;;;8.30;99.90;;;;;;4907623;29;20251;-71
2023/03/26 08:18:20;;;;;;;3.70;0.90;;;8.30;99.90;;;;;;4911040;29;22079;-71
2023/03/26 08:20:50;;;;;;;2.80;2.47;;;8.30;99.90;;;;;;4926790;29;20325;-70
2023/03/26 08:23:24;;;;;;;9.95;2.13;;;8.30;99.90;;;;;;4911383;29;20214;-71
2023/03/26 08:26:01;;;;;;;1.83;1.73;;;8.30;99.90;;;;;;4919995;29;20575;-70
2023/03/26 08:28:37;;;;;;;1.65;0.90;;;8.30;99.90;;;;;;4916187;29;20210;-70
2023/03/26 08:31:07;;;;;;;0.95;0.73;;;8.20;99.90;;;;;;4919936;29;20295;-70
2023/03/26 08:33:35;;;;;;;0.68;0.68;;;8.20;99.90;;;;;;4915717;29;20236;-70
2023/03/26 08:36:02;;;;;;;11.43;1.88;;;8.10;99.90;;;;;;4919128;29;20623;-70
2023/03/26 08:38:29;;;;;;;1.20;0.75;;;8.10;99.90;;;;;;4925718;29;20250;-71
2023/03/26 08:41:27;;;;;;;0.40;0.40;;;8.20;99.90;;;;;;4932203;29;20619;-71
2023/03/26 08:44:26;;;;;;;1.05;0.70;;;8.20;99.90;;;;;;4922837;29;20217;-71
2023/03/26 08:47:37;;;;;;;3.20;2.15;;;8.30;99.90;;;;;;4912231;29;20206;-70
2023/03/26 08:50:33;;;;;;;9.15;1.80;;;8.30;99.90;;;;;;4910688;29;20218;-71
2023/03/26 08:53:15;;;;;;;0.60;0.60;;;8.40;99.90;;;;;;4925768;29;20213;-72
2023/03/26 08:55:52;;;;;;;0.55;0.55;;;8.40;99.90;;;;;;4924287;29;20210;-70
2023/03/26 08:58:56;;;;;;;0.68;0.68;;;8.50;99.90;;;;;;4926519;29;20293;-71
2023/03/26 09:01:48;;;;;;;0.35;0.35;;;8.50;99.90;;;;;;4919377;29;20244;-71
2023/03/26 09:04:37;;;;;;;0.47;0.47;;;8.40;99.90;;;;;;4922400;29;20691;-71
2023/03/26 09:07:40;;;;;;;0.55;0.55;;;8.40;99.90;;;;;;4918456;29;20229;-71
2023/03/26 09:10:51;;;;;;;1.23;1.13;;;8.30;99.90;;;;;;4911810;29;20221;-71
2023/03/26 09:13:52;;;;;;;2.50;0.57;;;8.30;99.90;;;;;;4914437;29;20221;-71
2023/03/26 09:16:42;;;;;;;0.75;0.75;;;8.40;99.90;;;;;;4893491;29;20214;-71
2023/03/26 09:19:41;;;;;;;4.43;0.80;;;8.40;99.90;;;;;;4917126;29;20222;-71
2023/03/26 09:22:43;;;;;;;14.32;1.38;;;8.50;99.90;;;;;;4911793;29;20744;-69
2023/03/26 09:25:26;;;;;;;0.50;0.50;;;8.60;99.90;;;;;;4911626;29;20210;-69
2023/03/26 09:28:37;;;;;;;0.57;0.57;;;8.70;99.90;;;;;;4907794;29;20219;-69
2023/03/26 09:31:23;;;;;;;0.73;0.73;;;8.70;99.90;;;;;;4879503;29;20237;-69
2023/03/26 09:33:59;;;;;;;0.30;0.30;;;8.80;99.90;;;;;;4920665;29;20229;-67
2023/03/26 09:36:51;;;;;;;4.20;1.05;;;8.80;99.90;;;;;;4913233;29;20238;-68
2023/03/26 09:39:36;;;;;;;0.45;0.45;;;8.80;99.90;;;;;;4914509;29;20625;-68
2023/03/26 09:42:10;;;;;;;6.00;0.60;;;8.80;99.90;;;;;;4913828;29;20332;-68
2023/03/26 09:45:21;;;;;;;3.80;1.25;;;8.80;99.90;;;;;;4928335;29;20212;-68
2023/03/26 09:48:20;;;;;;;0.43;0.43;;;8.90;99.90;;;;;;4913384;29;20210;-68
2023/03/26 09:51:08;;;;;;;0.68;0.40;;;9.00;99.90;;;;;;4908628;29;20226;-68
2023/03/26 09:53:53;;;;;;;0.32;0.32;;;9.00;99.90;;;;;;4922902;29;20237;-68
2023/03/26 09:56:31;;;;;;;2.67;0.75;;;9.10;99.90;;;;;;4926238;29;20214;-68
2023/03/26 09:59:13;;;;;;;11.45;1.05;;;9.20;99.90;;;;;;4920581;29;20210;-68
2023/03/26 10:01:46;;;;;;;0.40;0.40;;;9.30;99.90;;;;;;4910180;29;20250;-68
2023/03/26 10:04:40;;;;;;;0.20;0.20;;;9.30;99.90;;;;;;4909293;29;20206;-68
2023/03/26 10:07:17;;;;;;;1.08;1.08;;;9.30;99.90;;;;;;4907199;29;20214;-68
2023/03/26 10:09:53;;;;;;;1.58;1.48;;;9.40;99.90;;;;;;4921848;29;20213;-68
2023/03/26 10:12:31;;;;;;;1.30;1.20;;;9.50;99.90;;;;;;4909892;29;20245;-68
2023/03/26 10:15:13;;;;;;;1.58;1.15;;;9.60;99.90;;;;;;4911471;29;20317;-68
2023/03/26 10:17:54;;;;;;;0.75;0.65;;;9.70;99.90;;;;;;4920885;29;20793;-68
2023/03/26 10:20:49;;;;;;;2.40;2.30;;;9.70;99.90;;;;;;4923653;23;20338;-69
2023/03/26 10:23:39;;;;;;;2.45;0.63;;;9.70;99.90;;;;;;4919325;29;20322;-66
2023/03/26 10:26:23;;;;;;;1.38;1.00;;;9.80;99.90;;;;;;4909126;29;20211;-67
2023/03/26 10:29:06;;;;;;;2.88;1.05;;;10.00;99.90;;;;;;4914158;29;20210;-67
2023/03/26 10:31:43;;;;;;;0.52;0.52;;;10.00;99.90;;;;;;4896666;29;20215;-67
2023/03/26 10:34:25;;;;;;;14.05;1.27;;;9.90;99.90;;;;;;4892270;29;20234;-67
2023/03/26 10:37:02;;;;;;;1.10;1.00;;;9.90;99.90;;;;;;4889085;29;20208;-67
2023/03/26 10:39:44;;;;;;;0.75;0.75;;;9.80;99.90;;;;;;4893826;29;20242;-68
2023/03/26 10:42:28;;;;;;;0.32;0.32;;;9.90;99.90;;;;;;4889874;29;20211;-68
2023/03/26 10:45:18;;;;;;;16.35;1.02;;;10.10;99.90;;;;;;4890698;29;20234;-67
2023/03/26 10:48:18;;;;;;;1.48;1.02;;;10.30;99.90;;;;;;4892606;29;20234;-68
2023/03/26 10:51:18;;;;;;;0.25;0.25;;;10.30;99.90;;;;;;4884144;29;20227;-68
2023/03/26 10:53:49;;;;;;;1.52;0.65;;;10.20;99.90;;;;;;4888146;29;20214;-68
2023/03/26 10:56:23;;;;;;;0.73;0.60;;;10.10;99.90;;;;;;4887703;29;20211;-68
2023/03/26 10:58:49;;;;;;;4.30;0.70;;;10.00;99.90;;;;;;4892773;29;20211;-68
2023/03/26 11:01:27;;;;;;;0.35;0.35;;;10.00;99.90;;;;;;4896317;29;20208;-68
2023/03/26 11:04:00;;;;;;;3.22;1.10;;;9.80;99.90;;;;;;4890672;29;20234;-68
2023/03/26 11:06:33;;;;;;;0.32;0.32;;;9.50;99.90;;;;;;4887879;29;20218;-69
2023/03/26 11:09:11;;;;;;;3.80;1.38;;;9.50;99.90;;;;;;4893933;29;20211;-68
2023/03/26 11:11:44;;;;;;;0.35;0.35;;;9.50;99.90;;;;;;4894375;29;20305;-68
2023/03/26 11:14:17;;;;;;;1.17;0.57;;;9.50;99.90;;;;;;4892954;29;20325;-68
2023/03/26 11:17:00;;;;;;;2.92;1.02;;;9.40;99.90;;;;;;4889554;29;20206;-68
2023/03/26 11:19:35;;;;;;;0.32;0.32;;;9.40;99.90;;;;;;4894035;29;20234;-68
2023/03/26 11:22:12;;;;;;;0.82;0.55;;;9.40;99.90;;;;;;4894018;29;20457;-68
2023/03/26 11:25:02;;;;;;;1.77;1.23;;;9.30;99.90;;;;;;4894014;29;20540;-68
2023/03/26 11:27:42;;;;;;;1.58;1.25;;;9.40;99.90;;;;;;4884035;29;20219;-68
2023/03/26 11:30:21;;;;;;;0.50;0.50;;;9.50;99.90;;;;;;4893102;29;20747;-68
2023/03/26 11:32:52;;;;;;;4.15;0.43;;;9.80;99.90;;;;;;4888585;29;20214;-68
2023/03/26 11:35:26;;;;;;;7.72;0.60;;;10.00;99.90;;;;;;4888650;29;20227;-68
2023/03/26 11:37:55;;;;;;;4.15;1.20;;;10.20;99.90;;;;;;4890429;29;20278;-69
2023/03/26 11:40:27;;;;;;;1.25;1.25;;;10.20;99.90;;;;;;4894480;29;20255;-70
2023/03/26 11:43:00;;;;;;;3.47;3.28;;;10.00;99.90;;;;;;4885371;29;20203;-68
2023/03/26 11:45:29;;;;;;;0.95;0.95;;;9.90;99.90;;;;;;4893923;29;20203;-69
2023/03/26 11:48:02;;;;;;;2.95;1.95;;;9.80;99.90;;;;;;4899157;29;20625;-69
2023/03/26 11:50:35;;;;;;;4.10;3.67;;;9.70;99.90;;;;;;4890379;29;20232;-69
2023/03/26 11:53:11;;;;;;;1.65;1.55;;;9.60;99.90;;;;;;4900333;29;20235;-67
2023/03/26 11:55:40;;;;;;;1.40;1.30;;;9.50;99.90;;;;;;4895541;29;20241;-68
2023/03/26 11:58:23;;;;;;;8.52;3.80;;;9.50;99.90;;;;;;4893466;29;20252;-68
2023/03/26 12:00:52;;;;;;;6.85;0.63;;;9.60;99.90;;;;;;4897169;29;20548;-70
2023/03/26 12:03:20;;;;;;;1.17;0.45;;;9.60;99.90;;;;;;4894219;29;20554;-70
2023/03/26 12:05:52;;;;;;;3.13;0.90;;;9.80;99.90;;;;;;4904491;29;20233;-69
2023/03/26 12:08:21;;;;;;;0.63;0.63;;;10.00;99.90;;;;;;4893934;29;20218;-68
2023/03/26 12:10:58;;;;;;;1.20;0.95;;;10.10;99.90;;;;;;4899432;29;20303;-69
2023/03/26 12:13:34;;;;;;;2.05;1.50;;;10.00;99.90;;;;;;4895843;29;20226;-69
2023/03/26 12:16:06;;;;;;;2.85;0.73;;;9.90;99.90;;;;;;4896299;29;20226;-67
2023/03/26 12:18:33;;;;;;;6.97;1.55;;;9.90;99.90;;;;;;4894678;29;20258;-69
2023/03/26 12:21:08;;;;;;;1.02;1.02;;;9.90;99.90;;;;;;4894237;29;20778;-68
2023/03/26 12:23:37;;;;;;;3.63;1.05;;;9.80;99.90;;;;;;4894508;29;20206;-68
2023/03/26 12:26:12;;;;;;;1.60;1.60;;;9.90;99.90;;;;;;4892463;29;20231;-69
2023/03/26 12:28:44;;;;;;;1.00;0.95;;;10.00;99.90;;;;;;4909481;29;20207;-68
2023/03/26 12:31:16;;;;;;;6.85;1.35;;;10.10;99.90;;;;;;4901323;29;20235;-68
2023/03/26 12:33:44;;;;;;;0.60;0.60;;;9.90;99.90;;;;;;4900765;29;20618;-68
2023/03/26 12:36:25;;;;;;;0.60;0.60;;;9.90;99.90;;;;;;4900425;29;20235;-69
2023/03/26 12:38:52;;;;;;;22.70;8.65;;;9.70;99.90;;;;;;4897471;29;20986;-69
2023/03/26 12:41:21;;;;;;;1.70;1.50;;;9.70;99.90;;;;;;4896365;29;20207;-71
2023/03/26 12:43:49;;;;;;;0.65;0.57;;;9.80;99.90;;;;;;4898154;29;20256;-68
2023/03/26 12:46:28;;;;;;;1.92;1.75;;;9.80;99.90;;;;;;4896563;29;20204;-70
2023/03/26 12:48:56;;;;;;;1.95;1.25;;;9.90;99.90;;;;;;4897454;29;20263;-68
2023/03/26 12:51:39;;;;;;;1.33;0.50;;;10.00;99.90;;;;;;4897635;29;20207;-68
2023/03/26 12:54:27;;;;;;;1.42;0.60;;;10.00;99.90;;;;;;4895738;29;20267;-68
2023/03/26 12:57:08;;;;;;;8.80;1.25;;;9.90;99.90;;;;;;4898146;29;20202;-68
2023/03/26 12:59:56;;;;;;;1.55;0.50;;;9.90;99.90;;;;;;4906952;29;20276;-69
2023/03/26 13:02:42;;;;;;;1.20;1.10;;;9.80;99.90;;;;;;4894442;29;20266;-68
2023/03/26 13:05:27;;;;;;;2.55;0.88;;;9.80;99.90;;;;;;4892994;29;20718;-68
2023/03/26 13:08:12;;;;;;;5.90;0.82;;;9.70;99.90;;;;;;4900176;29;20241;-68
2023/03/26 13:10:49;;;;;;;0.80;0.73;;;9.70;99.90;;;;;;4899432;29;20321;-73
2023/03/26 13:13:55;;;;;;;25.27;1.35;;;9.70;99.90;;;;;;4897106;29;20222;-67
2023/03/26 13:16:29;;;;;;;1.38;1.02;;;9.80;99.90;;;;;;4885991;29;20227;-68
2023/03/26 13:19:00;;;;;;;2.33;0.93;;;10.00;99.90;;;;;;4900067;29;20295;-68
2023/03/26 13:21:33;;;;;;;1.08;0.63;;;10.10;99.90;;;;;;4888184;29;20227;-68
2023/03/26 13:24:10;;;;;;;6.95;2.42;;;10.10;99.90;;;;;;4892851;29;20218;-68
2023/03/26 13:26:52;;;;;;;0.73;0.73;;;10.20;99.90;;;;;;4905720;29;20293;-67
2023/03/26 13:29:30;;;;;;;0.50;0.50;;;10.20;99.90;;;;;;4905032;29;20222;-67
2023/03/26 13:32:06;;;;;;;4.18;0.65;;;10.20;99.90;;;;;;4892189;29;20247;-67
2023/03/26 13:34:40;;;;;;;2.00;1.00;;;10.20;99.90;;;;;;4894973;29;20768;-67
2023/03/26 13:37:16;;;;;;;1.00;0.70;;;10.20;99.90;;;;;;4885781;29;20487;-68
2023/03/26 13:39:55;;;;;;;0.70;0.70;;;10.20;99.90;;;;;;4893209;29;20226;-68
2023/03/26 13:42:36;;;;;;;0.70;0.70;;;10.20;99.90;;;;;;4901176;29;20211;-67
2023/03/26 13:45:15;;;;;;;0.93;0.68;;;10.30;99.90;;;;;;4903443;29;20235;-68
2023/03/26 13:47:47;;;;;;;7.28;2.40;;;10.30;99.90;;;;;;4900922;29;20214;-68
2023/03/26 13:50:22;;;;;;;0.20;0.20;;;10.30;99.90;;;;;;4893909;29;20254;-68
2023/03/26 13:52:54;;;;;;;2.47;0.55;;;10.30;99.90;;;;;;4897120;29;20203;-68
2023/03/26 13:55:28;;;;;;;3.13;0.60;;;10.20;99.90;;;;;;4896822;29;20313;-68
2023/03/26 13:58:03;;;;;;;4.03;3.67;;;10.10;99.90;;;;;;4902028;29;20209;-68
2023/03/26 14:00:46;;;;;;;3.63;3.33;;;10.10;99.90;;;;;;4900102;29;20322;-68
2023/03/26 14:03:16;;;;;;;8.07;2.53;;;;;;;;;;4909644;29;20278;-69
2023/03/26 14:05:48;;;;;;;0.73;0.60;;;10.20;99.90;;;;;;4909782;29;20203;-68
2023/03/26 14:08:19;;;;;;;4.15;0.95;;;10.20;99.90;;;;;;4908914;29;20207;-68
2023/03/26 14:10:52;;;;;;;1.50;0.57;;;10.30;99.90;;;;;;4896172;29;20231;-68
2023/03/26 14:13:23;;;;;;;4.40;1.13;;;10.30;99.90;;;;;;4899257;29;20211;-69
2023/03/26 14:15:53;;;;;;;1.38;0.60;;;10.30;99.90;;;;;;4896882;29;20231;-68
2023/03/26 14:18:30;;;;;;;7.72;0.60;;;10.20;99.90;;;;;;4905209;29;20210;-68
2023/03/26 14:21:12;;;;;;;1.50;0.68;;;10.20;99.90;;;;;;4894413;29;20253;-67
2023/03/26 14:24:03;;;;;;;2.60;0.75;;;10.10;99.90;;;;;;4901801;29;20298;-67
2023/03/26 14:26:46;;;;;;;1.33;1.25;;;10.10;99.90;;;;;;4898738;29;20268;-68
2023/03/26 14:29:43;;;;;;;0.75;0.75;;;10.10;99.90;;;;;;4891563;29;20230;-68
2023/03/26 14:32:18;;;;;;;1.10;0.93;;;10.10;99.90;;;;;;4898542;29;20210;-68
2023/03/26 14:35:20;;;;;;;2.45;1.25;;;10.10;99.90;;;;;;4894006;29;20209;-68
2023/03/26 14:38:07;;;;;;;2.15;0.40;;;10.20;99.90;;;;;;4896882;29;20203;-68
2023/03/26 14:40:52;;;;;;;0.70;0.70;;;10.20;99.90;;;;;;4896121;29;21176;-68
2023/03/26 14:43:48;;;;;;;1.02;0.73;;;10.20;99.90;;;;;;4906834;29;20209;-68
2023/03/26 14:46:25;;;;;;;9.52;1.35;;;10.20;99.90;;;;;;4901320;29;20209;-68
2023/03/26 14:49:13;;;;;;;1.20;0.52;;;10.20;99.90;;;;;;4890741;29;20207;-68
2023/03/26 14:51:59;;;;;;;1.38;1.27;;;10.20;99.90;;;;;;4894945;29;20219;-68
2023/03/26 14:54:29;;;;;;;3.33;1.20;;;10.10;99.90;;;;;;4908516;29;20310;-68
2023/03/26 14:57:22;;;;;;;1.48;0.60;;;10.10;99.90;;;;;;4901497;29;20235;-68
2023/03/26 15:00:19;;;;;;;5.25;2.25;;;10.10;99.90;;;;;;4885503;29;20226;-67
2023/03/26 15:03:37;;;;;;;3.80;2.90;;;10.10;99.90;;;;;;4891697;29;20664;-68
2023/03/26 15:06:26;;;;;;;0.63;0.55;;;10.10;99.90;;;;;;4892757;29;20211;-68
2023/03/26 15:09:29;;;;;;;0.40;0.40;;;10.10;99.90;;;;;;4898972;29;20213;-68
2023/03/26 15:12:06;;;;;;;0.43;0.20;;;10.10;99.90;;;;;;4900182;29;20202;-68
2023/03/26 15:15:00;;;;;;;0.85;0.40;;;10.10;99.90;;;;;;4896257;29;20219;-68
2023/03/26 15:17:54;;;;;;;1.85;0.77;;;10.10;99.90;;;;;;4902628;29;20605;-68
2023/03/26 15:20:53;;;;;;;0.30;0.30;;;10.10;99.90;;;;;;4896011;29;20246;-68
2023/03/26 15:23:49;;;;;;;4.55;1.95;;;10.10;99.90;;;;;;4888213;29;20212;-69
2023/03/26 15:26:55;;;;;;;0.73;0.73;;;10.10;99.90;;;;;;4893191;29;20207;-69
2023/03/26 15:29:53;;;;;;;1.40;0.60;;;10.00;99.90;;;;;;4857642;29;20236;-69
2023/03/26 15:32:40;;;;;;;11.20;1.30;;;10.00;99.90;;;;;;4863163;29;20215;-69
2023/03/26 15:35:29;;;;;;;0.50;0.50;;;9.90;99.90;;;;;;4897223;29;20211;-69
2023/03/26 15:38:28;;;;;;;0.20;0.20;;;9.90;99.90;;;;;;4886256;29;20223;-69
2023/03/26 15:41:11;;;;;;;0.30;0.30;;;9.80;99.90;;;;;;4862800;29;20241;-70
2023/03/26 15:44:26;;;;;;;1.13;1.05;;;9.80;99.90;;;;;;4898542;29;20219;-69
2023/03/26 15:47:01;;;;;;;0.65;0.65;;;9.90;99.90;;;;;;4892040;29;20203;-69
2023/03/26 15:49:41;;;;;;;0.50;0.50;;;9.80;99.90;;;;;;4894293;29;20245;-69
2023/03/26 15:52:19;;;;;;;1.15;1.15;;;9.70;99.90;;;;;;4898657;29;20217;-69
2023/03/26 15:54:50;;;;;;;3.20;0.57;;;9.70;99.90;;;;;;4893499;29;20234;-69
2023/03/26 15:57:27;;;;;;;1.63;0.82;;;9.70;99.90;;;;;;4891439;29;20231;-68
2023/03/26 16:00:13;;;;;;;0.75;0.75;;;9.70;99.90;;;;;;4890411;29;20223;-69
2023/03/26 16:02:52;;;;;;;3.45;0.75;;;9.70;99.90;;;;;;4895108;29;20233;-69
2023/03/26 16:05:30;;;;;;;2.47;1.23;;;9.70;99.90;;;;;;4897509;29;20555;-69
2023/03/26 16:08:08;;;;;;;1.10;0.52;;;9.70;99.90;;;;;;4899005;29;20803;-69
2023/03/26 16:10:43;;;;;;;1.27;0.80;;;9.60;99.90;;;;;;4905474;29;20261;-69
2023/03/26 16:13:36;;;;;;;0.82;0.82;;;9.60;99.90;;;;;;4906114;29;20211;-69
2023/03/26 16:16:57;;;;;;;0.65;0.50;;;9.70;99.90;;;;;;4897766;29;20238;-69
2023/03/26 16:19:49;;;;;;;7.43;1.80;;;9.70;99.90;;;;;;4855936;29;20241;-69
2023/03/26 16:22:39;;;;;;;0.52;0.52;;;9.60;99.90;;;;;;4905965;29;20208;-69
2023/03/26 16:25:52;;;;;;;6.75;1.52;;;9.60;99.90;;;;;;4891782;29;20231;-70
2023/03/26 16:28:57;;;;;;;5.07;1.15;;;9.50;99.90;;;;;;4821240;29;20610;-69
2023/03/26 16:31:26;;;;;;;1.60;1.52;;;9.50;99.90;;;;;;4888819;29;20208;-70
2023/03/26 16:33:58;;;;;;;0.73;0.73;;;9.50;99.90;;;;;;4904548;29;20218;-70
2023/03/26 16:36:33;;;;;;;1.02;1.02;;;9.50;99.90;;;;;;4903015;29;20277;-69
2023/03/26 16:39:17;;;;;;;1.60;1.35;;;9.40;99.90;;;;;;4897600;29;20764;-69
2023/03/26 16:42:11;;;;;;;1.00;1.00;;;9.40;99.90;;;;;;4906719;29;20215;-69
2023/03/26 16:44:44;;;;;;;2.33;1.05;;;9.40;99.90;;;;;;4904871;29;20237;-69
2023/03/26 16:47:22;;;;;;;1.30;1.20;;;9.40;99.90;;;;;;4899481;29;20207;-70
2023/03/26 16:50:03;;;;;;;1.25;1.25;;;9.30;99.90;;;;;;4899305;29;20243;-70
2023/03/26 16:52:42;;;;;;;0.40;0.40;;;9.30;99.90;;;;;;4900446;29;20222;-69
2023/03/26 16:55:21;;;;;;;0.60;0.60;;;9.30;99.90;;;;;;4898186;29;20207;-69
2023/03/26 16:57:55;;;;;;;13.15;1.40;;;9.20;99.90;;;;;;4893710;29;20227;-69
2023/03/26 17:00:38;;;;;;;3.80;2.55;;;9.20;99.90;;;;;;4897177;29;20259;-68
2023/03/26 17:03:17;;;;;;;5.15;0.80;;;9.10;99.90;;;;;;4903240;29;20219;-69
2023/03/26 17:06:00;;;;;;;0.60;0.60;;;9.00;99.90;;;;;;4907304;29;20217;-70
2023/03/26 17:08:35;;;;;;;1.02;1.02;;;9.00;99.90;;;;;;4901903;29;20665;-69
2023/03/26 17:11:09;;;;;;;2.70;0.47;;;8.90;99.90;;;;;;4897171;29;20229;-70
2023/03/26 17:13:45;;;;;;;1.00;1.00;;;8.80;99.90;;;;;;4895464;29;20214;-69
2023/03/26 17:16:19;;;;;;;0.85;0.85;;;8.80;99.90;;;;;;4910551;29;20237;-70
2023/03/26 17:18:53;;;;;;;1.38;1.27;;;8.70;99.90;;;;;;4896009;29;20686;-71
2023/03/26 17:21:27;;;;;;;1.05;1.05;;;8.60;99.90;;;;;;4904569;29;20211;-70
2023/03/26 17:24:08;;;;;;;2.85;1.55;;;8.60;99.90;;;;;;4899109;29;20294;-70
2023/03/26 17:26:50;;;;;;;1.73;1.63;;;8.50;99.90;;;;;;4901243;29;20207;-68
2023/03/26 17:29:27;;;;;;;1.40;1.40;;;8.50;99.90;;;;;;4904539;29;20763;-69
2023/03/26 17:32:00;;;;;;;3.38;0.98;;;8.50;99.90;;;;;;4896601;29;20298;-68
2023/03/26 17:35:06;;;;;;;13.77;1.98;;;8.50;99.90;;;;;;4905357;29;20234;-69
2023/03/26 17:37:44;;;;;;;1.70;1.00;;;8.40;99.90;;;;;;4902189;29;20262;-69
2023/03/26 17:40:53;;;;;;;1.42;1.42;;;8.30;99.90;;;;;;4898513;29;20227;-69
2023/03/26 17:43:41;;;;;;;0.70;0.70;;;8.20;99.90;;;;;;4892776;29;20237;-68
2023/03/26 17:46:28;;;;;;;0.95;0.50;;;8.10;99.90;;;;;;4902669;29;20550;-68
2023/03/26 17:49:00;;;;;;;14.65;1.70;;;8.10;99.90;;;;;;4902577;29;20267;-69
2023/03/26 17:51:38;;;;;;;1.50;1.45;;;8.00;99.90;;;;;;4900470;29;20215;-69